createdAt,value
2018-10-18T00:01:10.092Z,25.87
2018-10-18T00:03:38.570Z,25.43
2018-10-18T00:06:07.177Z,28.60
2018-10-18T00:08:36.228Z,28.43
2018-10-18T00:11:04.820Z,30.67
2018-10-18T00:13:33.380Z,27.17
2018-10-18T00:16:02.074Z,26.97
2018-10-18T00:18:30.648Z,27.93
2018-10-18T00:20:59.124Z,27.13
2018-10-18T00:23:27.836Z,27.17
2018-10-18T00:25:56.345Z,27.10
2018-10-18T00:28:24.853Z,25.70
2018-10-18T00:30:53.443Z,26.63
2018-10-18T00:33:22.034Z,27.70
2018-10-18T00:35:50.617Z,27.67
2018-10-18T00:38:19.123Z,24.60
2018-10-18T00:40:47.544Z,26.97
2018-10-18T00:43:17.207Z,26.63
2018-10-18T00:45:45.651Z,29.03
2018-10-18T00:48:14.299Z,28.00
2018-10-18T00:50:43.462Z,27.63
2018-10-18T00:53:12.043Z,27.87
2018-10-18T00:55:40.873Z,25.57
2018-10-18T00:58:09.505Z,26.90
2018-10-18T01:00:38.422Z,28.00
2018-10-18T01:03:07.073Z,26.73
2018-10-18T01:05:35.700Z,26.90
2018-10-18T01:08:04.635Z,29.17
2018-10-18T01:10:33.188Z,31.37
2018-10-18T01:13:01.848Z,27.80
2018-10-18T01:15:30.371Z,28.60
2018-10-18T01:17:58.853Z,29.47
2018-10-18T01:20:27.408Z,31.77
2018-10-18T01:22:55.858Z,27.63
2018-10-18T01:25:24.346Z,27.37
2018-10-18T01:27:53.485Z,29.23
2018-10-18T01:30:21.942Z,31.13
2018-10-18T01:32:50.485Z,28.70
2018-10-18T01:35:19.356Z,28.53
2018-10-18T01:37:49.508Z,28.50
2018-10-18T01:40:18.159Z,28.27
2018-10-18T01:42:46.755Z,28.47
2018-10-18T01:45:15.264Z,24.13
2018-10-18T01:47:43.756Z,26.57
2018-10-18T01:50:12.454Z,26.37
2018-10-18T01:52:41.603Z,27.30
2018-10-18T01:55:10.157Z,26.90
2018-10-18T01:57:38.673Z,27.57
2018-10-18T02:00:08.375Z,24.80
2018-10-18T02:02:36.883Z,29.07
2018-10-18T02:05:05.530Z,26.87
2018-10-18T02:07:34.113Z,23.43
2018-10-18T02:10:02.709Z,26.13
2018-10-18T02:12:31.260Z,29.73
2018-10-18T02:14:59.677Z,24.87
2018-10-18T02:17:29.113Z,26.27
2018-10-18T02:19:57.832Z,25.73
2018-10-18T02:22:26.328Z,27.33
2018-10-18T02:24:55.015Z,25.87
2018-10-18T02:27:24.487Z,27.00
2018-10-18T02:29:53.274Z,25.40
2018-10-18T02:32:22.466Z,25.43
2018-10-18T02:34:50.926Z,24.07
2018-10-18T02:37:19.686Z,26.37
2018-10-18T02:39:48.299Z,25.80
2018-10-18T02:42:17.090Z,24.63
2018-10-18T02:44:45.559Z,23.57
2018-10-18T02:47:14.181Z,28.57
2018-10-18T02:49:42.886Z,29.03
2018-10-18T02:52:11.820Z,25.90
2018-10-18T02:54:40.410Z,27.33
2018-10-18T02:57:08.952Z,26.40
2018-10-18T02:59:37.440Z,30.20
2018-10-18T03:02:06.770Z,28.63
2018-10-18T03:04:35.252Z,26.63
2018-10-18T03:07:04.903Z,25.60
2018-10-18T03:09:34.261Z,24.33
2018-10-18T03:12:02.774Z,28.80
2018-10-18T03:14:31.401Z,25.87
2018-10-18T03:17:00.085Z,28.33
2018-10-18T03:19:28.686Z,29.80
2018-10-18T03:21:57.267Z,27.73
2018-10-18T03:24:25.745Z,29.90
2018-10-18T03:26:54.208Z,28.17
2018-10-18T03:29:22.725Z,24.40
2018-10-18T03:31:51.460Z,27.77
2018-10-18T03:34:20.644Z,29.47
2018-10-18T03:36:49.224Z,30.53
2018-10-18T03:39:17.733Z,27.40
2018-10-18T03:41:46.981Z,29.97
2018-10-18T03:44:15.592Z,29.37
2018-10-18T03:46:44.077Z,26.27
2018-10-18T03:49:12.666Z,29.67
2018-10-18T03:51:41.101Z,29.67
2018-10-18T03:54:09.763Z,31.83
2018-10-18T03:56:38.214Z,28.97
2018-10-18T03:59:07.157Z,30.17
2018-10-18T04:01:35.622Z,26.33
2018-10-18T04:04:04.093Z,28.97
2018-10-18T04:06:32.676Z,28.77
2018-10-18T04:09:01.265Z,28.83
2018-10-18T04:11:29.771Z,30.27
2018-10-18T04:13:58.211Z,30.77
2018-10-18T04:16:28.252Z,29.43
2018-10-18T04:18:56.820Z,32.17
2018-10-18T04:21:27.002Z,29.83
2018-10-18T04:23:55.529Z,29.13
2018-10-18T04:26:23.954Z,32.60
2018-10-18T04:28:52.706Z,32.63
2018-10-18T04:31:21.242Z,48.73
2018-10-18T04:33:49.730Z,38.63
2018-10-18T04:36:18.293Z,32.10
2018-10-18T04:38:46.750Z,32.00
2018-10-18T04:41:15.975Z,39.50
2018-10-18T04:43:44.690Z,30.83
2018-10-18T04:46:13.199Z,32.83
2018-10-18T04:48:42.148Z,28.17
2018-10-18T04:51:10.643Z,31.03
2018-10-18T04:53:39.179Z,29.87
2018-10-18T04:56:07.661Z,32.40
2018-10-18T04:58:36.168Z,29.83
2018-10-18T05:01:04.624Z,29.47
2018-10-18T05:03:34.097Z,29.67
2018-10-18T05:06:03.987Z,27.10
2018-10-18T05:08:32.473Z,31.60
2018-10-18T05:11:01.174Z,33.13
2018-10-18T05:13:29.738Z,32.03
2018-10-18T05:15:59.047Z,29.30
2018-10-18T05:18:27.520Z,29.83
2018-10-18T05:20:56.384Z,30.63
2018-10-18T05:23:25.096Z,32.13
2018-10-18T05:25:53.589Z,33.37
2018-10-18T05:28:22.304Z,35.07
2018-10-18T05:30:50.855Z,30.13
2018-10-18T05:33:19.326Z,35.27
2018-10-18T05:35:47.960Z,31.70
2018-10-18T05:38:17.038Z,28.40
2018-10-18T05:40:45.965Z,28.87
2018-10-18T05:43:14.511Z,34.47
2018-10-18T05:45:42.905Z,28.90
2018-10-18T05:48:11.830Z,30.03
2018-10-18T05:50:40.252Z,30.40
2018-10-18T05:53:08.972Z,29.67
2018-10-18T05:55:37.327Z,30.13
2018-10-18T05:58:06.095Z,28.83
2018-10-18T06:00:34.634Z,30.30
2018-10-18T06:03:03.187Z,26.13
2018-10-18T06:05:31.640Z,26.40
2018-10-18T06:08:00.200Z,27.30
2018-10-18T06:10:39.809Z,25.80
2018-10-18T06:13:08.522Z,28.07
2018-10-18T06:15:37.572Z,26.43
2018-10-18T06:18:06.447Z,26.20
2018-10-18T06:20:35.004Z,25.53
2018-10-18T06:23:03.619Z,23.90
2018-10-18T06:25:32.026Z,24.00
2018-10-18T06:28:00.997Z,23.70
2018-10-18T06:30:29.513Z,24.53
2018-10-18T06:32:57.971Z,24.67
2018-10-18T06:35:26.569Z,20.47
2018-10-18T06:37:55.129Z,20.53
2018-10-18T06:40:23.729Z,22.40
2018-10-18T06:42:52.525Z,24.17
2018-10-18T06:45:21.202Z,20.53
2018-10-18T06:47:49.849Z,20.83
2018-10-18T06:50:19.795Z,22.57
2018-10-18T06:52:48.463Z,23.80
2018-10-18T06:55:17.288Z,20.87
2018-10-18T06:57:46.413Z,23.20
2018-10-18T07:00:20.741Z,20.40
2018-10-18T07:02:50.130Z,21.43
2018-10-18T07:05:18.863Z,21.95
2018-10-18T07:07:47.499Z,21.60
2018-10-18T07:10:16.713Z,21.87
2018-10-18T07:12:49.497Z,20.83
2018-10-18T07:15:19.050Z,20.87
2018-10-18T07:17:48.578Z,23.30
2018-10-18T07:20:18.347Z,19.60
2018-10-18T07:22:47.287Z,22.10
2018-10-18T07:25:18.584Z,19.23
2018-10-18T07:27:47.124Z,19.33
2018-10-18T07:30:16.314Z,18.95
2018-10-18T07:32:45.223Z,20.10
2018-10-18T07:35:15.093Z,19.93
2018-10-18T07:37:43.680Z,19.90
2018-10-18T07:40:15.507Z,18.20
2018-10-18T07:42:44.673Z,17.87
2018-10-18T07:45:13.919Z,17.23
2018-10-18T07:47:43.049Z,18.43
2018-10-18T07:50:12.165Z,19.13
2018-10-18T07:52:40.731Z,20.47
2018-10-18T07:57:47.858Z,18.23
2018-10-18T08:00:16.828Z,17.87
2018-10-18T08:02:46.030Z,16.93
2018-10-18T08:05:15.150Z,18.67
2018-10-18T08:07:43.934Z,18.70
2018-10-18T08:10:19.793Z,18.60
2018-10-18T08:12:48.276Z,18.23
2018-10-18T08:15:17.543Z,19.15
2018-10-18T08:17:46.524Z,17.73
2018-10-18T08:20:15.414Z,16.53
2018-10-18T08:22:44.494Z,18.73
2018-10-18T08:25:13.057Z,19.20
2018-10-18T08:27:41.582Z,19.03
2018-10-18T08:30:11.985Z,16.63
2018-10-18T08:32:40.827Z,17.53
2018-10-18T08:35:10.500Z,17.07
2018-10-18T08:37:39.556Z,16.03
2018-10-18T08:40:14.869Z,16.87
2018-10-18T08:42:43.574Z,18.77
2018-10-18T08:45:12.625Z,16.63
2018-10-18T08:47:41.828Z,16.50
2018-10-18T08:50:12.192Z,15.80
2018-10-18T08:52:40.966Z,15.30
2018-10-18T08:55:12.302Z,19.37
2018-10-18T08:57:41.112Z,18.60
2018-10-18T09:00:11.373Z,15.63
2018-10-18T09:02:40.841Z,14.53
2018-10-18T09:05:09.754Z,14.73
2018-10-18T09:07:38.601Z,15.40
2018-10-18T09:10:08.007Z,15.00
2018-10-18T09:12:36.941Z,14.00
2018-10-18T09:15:07.505Z,14.60
2018-10-18T09:17:37.337Z,13.97
2018-10-18T09:25:00.407Z,14.93
2018-10-18T09:27:29.640Z,13.63
2018-10-18T09:29:58.333Z,15.30
2018-10-18T09:32:26.985Z,17.30
2018-10-18T09:34:55.469Z,15.77
2018-10-18T09:37:24.298Z,14.93
2018-10-18T09:39:53.689Z,12.97
2018-10-18T09:42:23.135Z,13.30
2018-10-18T09:44:51.596Z,11.63
2018-10-18T09:47:20.181Z,12.73
2018-10-18T09:49:48.893Z,10.83
2018-10-18T09:52:17.856Z,13.17
2018-10-18T09:54:46.631Z,10.03
2018-10-18T09:57:15.217Z,10.70
2018-10-18T09:59:47.824Z,9.83
2018-10-18T10:02:22.175Z,10.17
2018-10-18T10:04:50.623Z,9.30
2018-10-18T10:07:19.354Z,10.78
2018-10-18T10:09:47.868Z,8.77
2018-10-18T10:12:17.256Z,8.93
2018-10-18T10:14:45.974Z,11.80
2018-10-18T10:17:14.560Z,8.43
2018-10-18T10:19:43.948Z,9.63
2018-10-18T10:22:12.454Z,7.43
2018-10-18T16:46:03.753Z,11.27
2018-10-18T16:48:32.186Z,12.07
2018-10-18T16:51:01.734Z,14.03
2018-10-18T16:53:30.528Z,11.03
2018-10-18T16:55:59.293Z,13.00
2018-10-18T16:58:28.318Z,9.97
2018-10-18T17:00:56.813Z,14.17
2018-10-18T17:03:25.508Z,13.90
2018-10-18T17:05:55.218Z,12.73
2018-10-18T17:08:23.850Z,11.70
2018-10-18T17:10:52.722Z,11.37
2018-10-18T17:13:21.648Z,10.47
2018-10-18T17:15:50.198Z,11.67
2018-10-18T17:18:18.794Z,12.97
2018-10-18T17:20:47.459Z,11.27
2018-10-18T17:23:16.064Z,9.07
2018-10-18T17:25:44.725Z,11.17
2018-10-18T17:28:13.452Z,10.73
2018-10-18T17:30:42.222Z,12.70
2018-10-18T17:33:11.528Z,18.93
2018-10-18T17:35:40.264Z,10.10
2018-10-18T17:38:09.129Z,11.50
2018-10-18T17:40:38.031Z,10.60
2018-10-18T17:43:06.615Z,13.70
2018-10-18T17:45:35.534Z,13.20
2018-10-18T17:48:04.550Z,9.20
2018-10-18T17:50:33.144Z,12.57
2018-10-18T17:53:01.999Z,13.37
2018-10-18T17:55:31.302Z,10.33
2018-10-18T17:58:00.714Z,12.77
2018-10-18T18:00:29.214Z,32.93
2018-10-18T18:02:57.852Z,12.27
2018-10-18T18:05:26.578Z,16.47
2018-10-18T18:07:55.175Z,15.80
2018-10-18T18:10:24.476Z,15.37
2018-10-18T18:12:53.167Z,15.17
2018-10-18T18:32:57.330Z,16.97
2018-10-18T18:35:26.348Z,21.25
2018-10-18T18:38:01.758Z,20.07
2018-10-18T18:40:31.578Z,22.47
2018-10-18T18:43:00.511Z,17.43
2018-10-18T18:45:34.851Z,20.93
2018-10-18T18:48:04.690Z,27.30
2018-10-18T18:50:34.080Z,30.33
2018-10-18T18:53:03.264Z,13.67
2018-10-18T18:55:31.941Z,15.63
2018-10-18T18:58:01.247Z,21.60
2018-10-18T19:00:30.238Z,18.73
2018-10-18T19:02:59.018Z,15.03
2018-10-18T19:05:29.289Z,17.20
2018-10-18T19:07:58.281Z,17.43
2018-10-18T19:10:27.108Z,17.20
2018-10-18T19:12:55.692Z,23.13
2018-10-18T19:15:24.576Z,12.83
2018-10-18T19:17:53.499Z,16.77
2018-10-18T19:20:22.462Z,14.07
2018-10-18T19:22:51.373Z,14.43
2018-10-18T19:25:20.057Z,19.07
2018-10-18T19:27:48.736Z,19.23
2018-10-18T19:30:18.209Z,47.80
2018-10-18T19:32:47.471Z,34.73
2018-10-18T19:35:16.435Z,44.67
2018-10-18T19:37:48.488Z,44.33
2018-10-18T19:40:17.931Z,24.13
2018-10-18T19:42:46.552Z,22.03
2018-10-18T19:45:15.232Z,24.23
2018-10-18T19:47:44.005Z,20.93
2018-10-18T19:50:13.230Z,20.93
2018-10-18T19:52:42.711Z,19.17
2018-10-18T19:55:12.536Z,20.17
2018-10-18T19:57:41.477Z,14.93
2018-10-18T20:00:10.676Z,14.03
2018-10-18T20:02:39.327Z,17.17
2018-10-18T20:05:08.586Z,15.13
2018-10-18T20:07:38.313Z,16.27
2018-10-18T20:10:08.774Z,11.30
2018-10-18T20:12:37.439Z,12.27
2018-10-18T20:15:07.818Z,11.95
2018-10-18T20:17:36.469Z,12.37
2018-10-18T20:20:06.052Z,13.47
2018-10-18T20:22:39.600Z,13.60
2018-10-18T20:25:09.225Z,14.13
2018-10-18T20:27:38.215Z,12.67
2018-10-18T20:30:11.285Z,12.03
2018-10-18T20:32:39.922Z,12.30
2018-10-18T20:35:09.293Z,12.37
2018-10-18T20:37:38.175Z,11.97
2018-10-18T20:40:09.148Z,12.47
2018-10-18T20:42:37.712Z,10.97
2018-10-18T20:45:07.916Z,8.60
2018-10-18T20:47:37.101Z,11.73
2018-10-18T20:50:06.069Z,11.57
2018-10-18T20:52:35.310Z,10.10
2018-10-18T20:55:04.036Z,11.90
2018-10-18T20:57:35.824Z,9.33
2018-10-18T21:00:04.898Z,11.70
2018-10-18T21:02:34.342Z,12.47
2018-10-18T21:05:03.151Z,11.70
2018-10-18T21:07:32.115Z,12.17
2018-10-18T21:10:01.326Z,12.17
2018-10-18T21:12:30.265Z,11.03
2018-10-18T21:14:59.077Z,14.03
2018-10-18T21:17:27.664Z,15.43
2018-10-18T21:19:57.095Z,15.57
2018-10-18T21:22:26.143Z,13.80
2018-10-18T21:24:56.997Z,17.33
2018-10-18T21:27:25.660Z,15.00
2018-10-18T21:29:59.769Z,17.33
2018-10-18T21:32:28.396Z,16.57
2018-10-18T21:34:57.051Z,19.03
2018-10-18T21:37:25.648Z,16.87
2018-10-18T21:39:54.302Z,20.03
2018-10-18T21:42:22.962Z,22.73
2018-10-18T21:44:52.528Z,25.07
2018-10-18T21:47:21.420Z,21.30
2018-10-18T21:49:50.137Z,21.37
2018-10-18T21:52:19.340Z,19.13
2018-10-18T21:54:47.937Z,21.27
2018-10-18T21:57:16.517Z,22.17
2018-10-18T21:59:45.267Z,20.00
2018-10-18T22:02:14.622Z,19.13
2018-10-18T22:04:43.352Z,17.03
2018-10-18T22:07:12.121Z,17.03
2018-10-18T22:09:40.769Z,19.10
2018-10-18T22:12:09.689Z,15.13
2018-10-18T22:14:38.294Z,18.30
2018-10-18T22:17:07.071Z,19.07
2018-10-18T22:19:35.513Z,15.50
2018-10-18T22:22:04.084Z,21.87
2018-10-18T22:24:32.731Z,17.20
2018-10-18T22:27:01.304Z,14.00
2018-10-18T22:29:32.867Z,15.60
2018-10-18T22:32:01.460Z,16.50
2018-10-18T22:34:30.113Z,18.27
2018-10-18T22:36:58.610Z,19.13
2018-10-18T22:39:27.190Z,20.50
2018-10-18T22:41:56.711Z,18.03
2018-10-18T22:44:25.398Z,19.80
2018-10-18T22:46:54.104Z,15.87
2018-10-18T22:49:22.923Z,19.40
2018-10-18T22:51:52.133Z,15.83
2018-10-18T22:54:21.451Z,20.50
2018-10-18T22:56:50.090Z,18.80
2018-10-18T22:59:18.766Z,16.13
2018-10-18T23:01:47.312Z,17.37
2018-10-18T23:04:16.034Z,20.40
2018-10-18T23:06:44.849Z,19.53
2018-10-18T23:09:13.838Z,15.43
2018-10-18T23:11:42.475Z,18.93
2018-10-18T23:14:11.485Z,20.00
2018-10-18T23:16:40.463Z,21.57
2018-10-18T23:19:10.045Z,18.47
2018-10-18T23:21:38.546Z,20.50
2018-10-18T23:24:07.435Z,17.07
2018-10-18T23:26:36.220Z,22.80
2018-10-18T23:29:05.291Z,21.47
2018-10-18T23:31:33.841Z,22.87
2018-10-18T23:34:02.389Z,20.83
2018-10-18T23:36:31.289Z,20.83
2018-10-18T23:38:59.899Z,19.83
2018-10-18T23:41:28.641Z,20.53
2018-10-18T23:43:57.317Z,21.23
2018-10-18T23:46:25.934Z,20.80
2018-10-18T23:48:54.438Z,22.97
2018-10-18T23:51:23.466Z,18.50
2018-10-18T23:53:52.121Z,19.70
2018-10-18T23:56:20.652Z,22.00
2018-10-18T23:58:49.300Z,20.37
